Terminal Aerodrome Forecast
Issued by NWS

Home | Current Version | Previous Version | Text Only | Print | Product List | Glossary On
Versions: 1 2 3 4 5 6 7 8 9 10 11 12 13 14 15 16 17 18 19 20 21 22 23 24 25 26
098
FTUS43 KAPX 061120
TAFAPN
TAF
KAPN 061120Z 0612/0712 VRB03KT P6SM SCT025 OVC100
     FM061600 12012G21KT P6SM BKN025
     FM070000 15010KT P6SM OVC015
     FM070200 23008KT P6SM VCSH OVC015=

USA.gov is the U.S. government's official web portal to all federal, state and local government web resources and services.